sensor_id;sensor_type;location;lat;lon;timestamp;pressure;altitude;pressure_sealevel;temperature;humidity
73085;BME280;62974;49.460;10.892;2023-09-07T00:00:30;98251.84;;;17.65;82.01
73085;BME280;62974;49.460;10.892;2023-09-07T00:02:59;98248.44;;;17.93;79.44
73085;BME280;62974;49.460;10.892;2023-09-07T00:05:27;98235.69;;;17.94;79.54
73085;BME280;62974;49.460;10.892;2023-09-07T00:07:55;98231.78;;;17.90;79.79
73085;BME280;62974;49.460;10.892;2023-09-07T00:10:23;98233.81;;;17.94;79.58
73085;BME280;62974;49.460;10.892;2023-09-07T00:12:52;98235.81;;;17.87;79.95
73085;BME280;62974;49.460;10.892;2023-09-07T00:15:23;98247.97;;;17.84;79.88
73085;BME280;62974;49.460;10.892;2023-09-07T00:17:52;98243.84;;;17.82;80.07
73085;BME280;62974;49.460;10.892;2023-09-07T00:20:22;98234.84;;;17.81;79.71
73085;BME280;62974;49.460;10.892;2023-09-07T00:22:50;98238.41;;;17.82;79.42
73085;BME280;62974;49.460;10.892;2023-09-07T00:25:18;98245.38;;;17.78;79.70
73085;BME280;62974;49.460;10.892;2023-09-07T00:27:46;98237.22;;;17.78;79.33
73085;BME280;62974;49.460;10.892;2023-09-07T00:30:14;98234.97;;;17.75;79.80
73085;BME280;62974;49.460;10.892;2023-09-07T00:32:42;98242.53;;;17.73;79.53
73085;BME280;62974;49.460;10.892;2023-09-07T00:35:10;98236.50;;;17.71;79.89
73085;BME280;62974;49.460;10.892;2023-09-07T00:37:39;98235.91;;;17.69;79.93
73085;BME280;62974;49.460;10.892;2023-09-07T00:40:07;98244.31;;;17.67;79.93
73085;BME280;62974;49.460;10.892;2023-09-07T00:42:36;98251.66;;;17.37;82.01
73085;BME280;62974;49.460;10.892;2023-09-07T00:45:05;98246.28;;;17.60;80.23
73085;BME280;62974;49.460;10.892;2023-09-07T00:47:34;98244.97;;;17.51;80.39
73085;BME280;62974;49.460;10.892;2023-09-07T00:50:03;98246.59;;;17.52;80.52
73085;BME280;62974;49.460;10.892;2023-09-07T00:52:31;98240.72;;;17.55;79.94
73085;BME280;62974;49.460;10.892;2023-09-07T00:55:01;98241.53;;;17.56;80.16
73085;BME280;62974;49.460;10.892;2023-09-07T00:57:30;98242.00;;;17.53;80.32
73085;BME280;62974;49.460;10.892;2023-09-07T00:59:58;98234.91;;;17.52;80.38
73085;BME280;62974;49.460;10.892;2023-09-07T01:02:26;98237.25;;;17.48;80.19
73085;BME280;62974;49.460;10.892;2023-09-07T01:04:56;98232.78;;;17.42;80.60
73085;BME280;62974;49.460;10.892;2023-09-07T01:07:26;98231.72;;;17.43;80.41
73085;BME280;62974;49.460;10.892;2023-09-07T01:10:01;98227.00;;;17.38;80.15
73085;BME280;62974;49.460;10.892;2023-09-07T01:12:29;98229.72;;;17.38;80.46
73085;BME280;62974;49.460;10.892;2023-09-07T01:14:57;98229.34;;;17.35;81.09
73085;BME280;62974;49.460;10.892;2023-09-07T01:17:26;98220.94;;;17.36;80.96
73085;BME280;62974;49.460;10.892;2023-09-07T01:19:56;98226.16;;;17.38;80.32
73085;BME280;62974;49.460;10.892;2023-09-07T01:22:27;98220.84;;;17.31;80.47
73085;BME280;62974;49.460;10.892;2023-09-07T01:24:55;98223.78;;;17.30;80.77
73085;BME280;62974;49.460;10.892;2023-09-07T01:27:23;98225.53;;;17.24;81.24
73085;BME280;62974;49.460;10.892;2023-09-07T01:29:51;98220.94;;;17.25;80.91
73085;BME280;62974;49.460;10.892;2023-09-07T01:32:18;98219.75;;;17.21;81.04
73085;BME280;62974;49.460;10.892;2023-09-07T01:34:46;98228.81;;;17.15;80.88
73085;BME280;62974;49.460;10.892;2023-09-07T01:37:14;98223.50;;;17.20;80.77
73085;BME280;62974;49.460;10.892;2023-09-07T01:39:43;98220.44;;;17.16;81.27
73085;BME280;62974;49.460;10.892;2023-09-07T01:42:11;98217.72;;;17.16;80.99
73085;BME280;62974;49.460;10.892;2023-09-07T01:44:38;98224.66;;;17.12;80.83
73085;BME280;62974;49.460;10.892;2023-09-07T01:47:06;98222.56;;;17.14;81.03
73085;BME280;62974;49.460;10.892;2023-09-07T01:49:34;98219.97;;;17.08;81.33
73085;BME280;62974;49.460;10.892;2023-09-07T01:52:02;98223.72;;;17.07;81.31
73085;BME280;62974;49.460;10.892;2023-09-07T01:54:29;98226.06;;;17.03;80.82
73085;BME280;62974;49.460;10.892;2023-09-07T01:56:58;98220.66;;;17.03;80.90
73085;BME280;62974;49.460;10.892;2023-09-07T01:59:26;98222.16;;;16.99;81.49
73085;BME280;62974;49.460;10.892;2023-09-07T02:01:53;98217.19;;;16.96;81.75
73085;BME280;62974;49.460;10.892;2023-09-07T02:04:21;98219.78;;;16.91;81.19
73085;BME280;62974;49.460;10.892;2023-09-07T02:06:49;98216.47;;;16.89;81.59
73085;BME280;62974;49.460;10.892;2023-09-07T02:09:16;98218.94;;;16.90;81.29
73085;BME280;62974;49.460;10.892;2023-09-07T02:11:44;98219.28;;;16.82;81.42
73085;BME280;62974;49.460;10.892;2023-09-07T02:14:13;98218.59;;;16.87;81.48
73085;BME280;62974;49.460;10.892;2023-09-07T02:16:40;98219.63;;;16.86;81.33
73085;BME280;62974;49.460;10.892;2023-09-07T02:19:09;98223.41;;;16.85;81.24
73085;BME280;62974;49.460;10.892;2023-09-07T02:21:37;98222.81;;;16.83;81.17
73085;BME280;62974;49.460;10.892;2023-09-07T02:24:05;98218.06;;;16.78;81.01
73085;BME280;62974;49.460;10.892;2023-09-07T02:26:32;98218.53;;;16.75;81.47
73085;BME280;62974;49.460;10.892;2023-09-07T02:29:00;98214.53;;;16.78;80.98
73085;BME280;62974;49.460;10.892;2023-09-07T02:31:32;98224.41;;;16.72;81.46
73085;BME280;62974;49.460;10.892;2023-09-07T02:34:00;98223.59;;;16.72;81.27
73085;BME280;62974;49.460;10.892;2023-09-07T02:36:29;98235.81;;;16.08;85.58
73085;BME280;62974;49.460;10.892;2023-09-07T02:38:56;98241.84;;;15.67;91.57
73085;BME280;62974;49.460;10.892;2023-09-07T02:41:24;98233.34;;;15.32;92.85
73085;BME280;62974;49.460;10.892;2023-09-07T02:43:52;98235.44;;;14.68;97.20
73085;BME280;62974;49.460;10.892;2023-09-07T02:46:19;98229.06;;;15.49;93.70
73085;BME280;62974;49.460;10.892;2023-09-07T02:48:49;98221.72;;;16.18;86.44
73085;BME280;62974;49.460;10.892;2023-09-07T02:51:16;98222.16;;;16.33;85.07
73085;BME280;62974;49.460;10.892;2023-09-07T02:53:44;98221.50;;;16.37;83.86
73085;BME280;62974;49.460;10.892;2023-09-07T02:56:12;98224.56;;;16.41;83.64
73085;BME280;62974;49.460;10.892;2023-09-07T02:58:39;98221.50;;;16.37;83.05
73085;BME280;62974;49.460;10.892;2023-09-07T03:01:07;98222.53;;;16.36;83.19
73085;BME280;62974;49.460;10.892;2023-09-07T03:03:39;98217.34;;;16.35;83.31
73085;BME280;62974;49.460;10.892;2023-09-07T03:06:12;98221.50;;;16.37;82.94
73085;BME280;62974;49.460;10.892;2023-09-07T03:08:40;98212.31;;;16.38;82.65
73085;BME280;62974;49.460;10.892;2023-09-07T03:11:08;98218.63;;;16.32;83.04
73085;BME280;62974;49.460;10.892;2023-09-07T03:13:36;98241.03;;;14.73;92.54
73085;BME280;62974;49.460;10.892;2023-09-07T03:16:04;98233.44;;;15.50;91.13
73085;BME280;62974;49.460;10.892;2023-09-07T03:18:32;98214.50;;;16.12;84.71
73085;BME280;62974;49.460;10.892;2023-09-07T03:21:01;98214.22;;;16.20;83.86
73085;BME280;62974;49.460;10.892;2023-09-07T03:23:32;98216.66;;;16.21;83.15
73085;BME280;62974;49.460;10.892;2023-09-07T03:26:00;98221.88;;;16.23;83.12
73085;BME280;62974;49.460;10.892;2023-09-07T03:28:28;98211.13;;;16.16;82.80
73085;BME280;62974;49.460;10.892;2023-09-07T03:30:56;98206.28;;;16.18;82.84
73085;BME280;62974;49.460;10.892;2023-09-07T03:33:23;98216.97;;;16.13;82.64
73085;BME280;62974;49.460;10.892;2023-09-07T03:35:51;98216.13;;;16.13;82.78
73085;BME280;62974;49.460;10.892;2023-09-07T03:38:19;98213.69;;;16.11;82.83
73085;BME280;62974;49.460;10.892;2023-09-07T03:40:47;98213.22;;;16.14;82.42
73085;BME280;62974;49.460;10.892;2023-09-07T03:43:15;98212.63;;;16.12;82.11
73085;BME280;62974;49.460;10.892;2023-09-07T03:45:43;98208.47;;;16.10;82.67
73085;BME280;62974;49.460;10.892;2023-09-07T03:48:10;98219.09;;;16.11;82.62
73085;BME280;62974;49.460;10.892;2023-09-07T03:50:38;98217.44;;;16.10;82.44
73085;BME280;62974;49.460;10.892;2023-09-07T03:53:05;98219.75;;;16.07;82.15
73085;BME280;62974;49.460;10.892;2023-09-07T03:55:40;98211.25;;;16.03;81.98
73085;BME280;62974;49.460;10.892;2023-09-07T03:58:10;98214.63;;;15.98;82.31
73085;BME280;62974;49.460;10.892;2023-09-07T04:00:38;98215.47;;;15.99;82.34
73085;BME280;62974;49.460;10.892;2023-09-07T04:03:06;98218.78;;;16.01;82.05
73085;BME280;62974;49.460;10.892;2023-09-07T04:05:36;98215.69;;;15.97;82.10
73085;BME280;62974;49.460;10.892;2023-09-07T04:08:05;98210.94;;;15.93;82.22
73085;BME280;62974;49.460;10.892;2023-09-07T04:10:36;98208.03;;;15.94;82.36
73085;BME280;62974;49.460;10.892;2023-09-07T04:13:04;98215.97;;;15.89;82.47
73085;BME280;62974;49.460;10.892;2023-09-07T04:15:33;98219.22;;;15.80;82.43
73085;BME280;62974;49.460;10.892;2023-09-07T04:18:03;98215.22;;;15.82;82.87
73085;BME280;62974;49.460;10.892;2023-09-07T04:20:30;98216.88;;;15.83;82.64
73085;BME280;62974;49.460;10.892;2023-09-07T04:22:58;98222.91;;;15.85;82.44
73085;BME280;62974;49.460;10.892;2023-09-07T04:25:26;98222.75;;;15.80;82.65
73085;BME280;62974;49.460;10.892;2023-09-07T04:27:53;98220.25;;;15.79;82.63
73085;BME280;62974;49.460;10.892;2023-09-07T04:30:23;98218.38;;;15.79;82.77
73085;BME280;62974;49.460;10.892;2023-09-07T04:32:52;98218.59;;;15.78;82.63
73085;BME280;62974;49.460;10.892;2023-09-07T04:35:19;98221.31;;;15.78;82.66
73085;BME280;62974;49.460;10.892;2023-09-07T04:37:47;98228.22;;;15.74;82.69
73085;BME280;62974;49.460;10.892;2023-09-07T04:40:15;98229.72;;;15.70;82.60
73085;BME280;62974;49.460;10.892;2023-09-07T04:42:42;98231.44;;;15.64;82.43
73085;BME280;62974;49.460;10.892;2023-09-07T04:45:10;98230.75;;;15.69;82.44
73085;BME280;62974;49.460;10.892;2023-09-07T04:47:38;98231.66;;;15.63;82.33
73085;BME280;62974;49.460;10.892;2023-09-07T04:50:07;98230.81;;;15.62;82.26
73085;BME280;62974;49.460;10.892;2023-09-07T04:52:35;98237.06;;;15.63;82.17
73085;BME280;62974;49.460;10.892;2023-09-07T04:55:03;98234.56;;;15.61;82.48
73085;BME280;62974;49.460;10.892;2023-09-07T04:57:31;98245.00;;;15.64;82.03
73085;BME280;62974;49.460;10.892;2023-09-07T04:59:59;98244.63;;;15.54;82.58
73085;BME280;62974;49.460;10.892;2023-09-07T05:02:26;98246.06;;;15.57;82.56
73085;BME280;62974;49.460;10.892;2023-09-07T05:04:54;98254.81;;;15.59;82.71
73085;BME280;62974;49.460;10.892;2023-09-07T05:07:23;98252.28;;;15.64;82.06
73085;BME280;62974;49.460;10.892;2023-09-07T05:09:51;98251.06;;;15.60;82.60
73085;BME280;62974;49.460;10.892;2023-09-07T05:12:18;98242.56;;;15.56;82.50
73085;BME280;62974;49.460;10.892;2023-09-07T05:14:46;98252.31;;;15.57;82.67
73085;BME280;62974;49.460;10.892;2023-09-07T05:17:13;98250.28;;;15.53;82.33
73085;BME280;62974;49.460;10.892;2023-09-07T05:19:41;98252.94;;;15.59;82.58
73085;BME280;62974;49.460;10.892;2023-09-07T05:22:10;98252.28;;;15.64;82.29
73085;BME280;62974;49.460;10.892;2023-09-07T05:24:39;98262.84;;;15.72;82.11
73085;BME280;62974;49.460;10.892;2023-09-07T05:27:07;98263.31;;;15.62;83.06
73085;BME280;62974;49.460;10.892;2023-09-07T05:29:34;98272.66;;;15.66;82.59
73085;BME280;62974;49.460;10.892;2023-09-07T05:32:02;98269.75;;;15.68;83.15
73085;BME280;62974;49.460;10.892;2023-09-07T05:34:29;98263.03;;;15.70;82.78
73085;BME280;62974;49.460;10.892;2023-09-07T05:36:57;98265.75;;;15.70;82.75
73085;BME280;62974;49.460;10.892;2023-09-07T05:39:24;98268.47;;;15.70;83.21
73085;BME280;62974;49.460;10.892;2023-09-07T05:41:53;98271.78;;;15.72;83.53
73085;BME280;62974;49.460;10.892;2023-09-07T05:44:21;98274.03;;;15.75;83.28
73085;BME280;62974;49.460;10.892;2023-09-07T05:46:49;98265.47;;;15.78;83.25
73085;BME280;62974;49.460;10.892;2023-09-07T05:49:16;98261.94;;;15.78;83.65
73085;BME280;62974;49.460;10.892;2023-09-07T05:51:44;98267.13;;;15.79;83.72
73085;BME280;62974;49.460;10.892;2023-09-07T05:54:12;98266.69;;;15.82;83.31
73085;BME280;62974;49.460;10.892;2023-09-07T05:56:39;98265.84;;;15.82;84.50
73085;BME280;62974;49.460;10.892;2023-09-07T05:59:08;98262.28;;;15.88;83.58
73085;BME280;62974;49.460;10.892;2023-09-07T06:01:36;98270.41;;;15.88;84.37
73085;BME280;62974;49.460;10.892;2023-09-07T06:04:04;98273.25;;;15.93;83.65
73085;BME280;62974;49.460;10.892;2023-09-07T06:06:32;98272.81;;;15.96;84.26
73085;BME280;62974;49.460;10.892;2023-09-07T06:08:59;98267.53;;;16.01;83.76
73085;BME280;62974;49.460;10.892;2023-09-07T06:11:27;98267.31;;;16.03;83.81
73085;BME280;62974;49.460;10.892;2023-09-07T06:13:55;98268.53;;;16.07;83.86
73085;BME280;62974;49.460;10.892;2023-09-07T06:16:24;98268.16;;;16.03;85.20
73085;BME280;62974;49.460;10.892;2023-09-07T06:18:52;98259.50;;;16.13;83.45
73085;BME280;62974;49.460;10.892;2023-09-07T06:21:19;98270.34;;;16.13;84.14
73085;BME280;62974;49.460;10.892;2023-09-07T06:23:47;98275.63;;;16.08;91.45
73085;BME280;62974;49.460;10.892;2023-09-07T06:26:16;98282.66;;;15.90;95.17
73085;BME280;62974;49.460;10.892;2023-09-07T06:28:45;98258.69;;;16.12;87.25
73085;BME280;62974;49.460;10.892;2023-09-07T06:31:13;98267.41;;;16.14;88.12
73085;BME280;62974;49.460;10.892;2023-09-07T06:33:46;98275.75;;;16.13;94.63
73085;BME280;62974;49.460;10.892;2023-09-07T06:36:13;98288.91;;;15.91;100.00
73085;BME280;62974;49.460;10.892;2023-09-07T06:38:41;98274.63;;;16.02;100.00
73085;BME280;62974;49.460;10.892;2023-09-07T06:41:09;98268.31;;;16.08;100.00
73085;BME280;62974;49.460;10.892;2023-09-07T06:43:38;98267.03;;;16.11;100.00
73085;BME280;62974;49.460;10.892;2023-09-07T06:46:07;98272.47;;;16.11;100.00
73085;BME280;62974;49.460;10.892;2023-09-07T06:48:35;98270.50;;;16.18;100.00
73085;BME280;62974;49.460;10.892;2023-09-07T06:51:05;98277.44;;;16.32;100.00
73085;BME280;62974;49.460;10.892;2023-09-07T06:53:32;98277.66;;;16.30;99.77
73085;BME280;62974;49.460;10.892;2023-09-07T06:56:20;98275.94;;;16.36;100.00
73085;BME280;62974;49.460;10.892;2023-09-07T06:58:47;98281.50;;;16.23;100.00
73085;BME280;62974;49.460;10.892;2023-09-07T07:01:15;98273.63;;;16.39;99.71
73085;BME280;62974;49.460;10.892;2023-09-07T07:03:43;98273.91;;;16.50;100.00
73085;BME280;62974;49.460;10.892;2023-09-07T07:06:12;98277.59;;;16.55;100.00
73085;BME280;62974;49.460;10.892;2023-09-07T07:08:40;98277.00;;;16.35;100.00
73085;BME280;62974;49.460;10.892;2023-09-07T07:11:07;98278.22;;;16.57;100.00
73085;BME280;62974;49.460;10.892;2023-09-07T07:13:35;98278.38;;;16.62;100.00
73085;BME280;62974;49.460;10.892;2023-09-07T07:16:04;98267.00;;;16.72;100.00
73085;BME280;62974;49.460;10.892;2023-09-07T07:18:37;98278.28;;;16.69;98.94
73085;BME280;62974;49.460;10.892;2023-09-07T07:21:21;98275.25;;;16.77;100.00
73085;BME280;62974;49.460;10.892;2023-09-07T07:23:48;98277.63;;;17.03;100.00
73085;BME280;62974;49.460;10.892;2023-09-07T07:26:16;98271.41;;;16.84;100.00
73085;BME280;62974;49.460;10.892;2023-09-07T07:28:43;98262.94;;;16.92;100.00
73085;BME280;62974;49.460;10.892;2023-09-07T07:31:29;98269.75;;;17.13;97.38
73085;BME280;62974;49.460;10.892;2023-09-07T07:33:56;98273.38;;;16.96;97.88
73085;BME280;62974;49.460;10.892;2023-09-07T07:36:26;98274.81;;;17.10;99.31
73085;BME280;62974;49.460;10.892;2023-09-07T07:38:53;98271.69;;;17.24;98.02
73085;BME280;62974;49.460;10.892;2023-09-07T07:41:21;98264.38;;;17.25;96.14
73085;BME280;62974;49.460;10.892;2023-09-07T07:43:48;98273.28;;;17.44;100.00
73085;BME280;62974;49.460;10.892;2023-09-07T07:46:16;98271.25;;;17.39;99.65
73085;BME280;62974;49.460;10.892;2023-09-07T07:48:46;98271.34;;;17.62;100.00
73085;BME280;62974;49.460;10.892;2023-09-07T07:51:14;98263.78;;;17.76;98.22
73085;BME280;62974;49.460;10.892;2023-09-07T07:53:43;98264.97;;;17.68;99.24
73085;BME280;62974;49.460;10.892;2023-09-07T07:56:17;98263.56;;;17.89;95.52
73085;BME280;62974;49.460;10.892;2023-09-07T07:58:44;98267.47;;;17.93;91.36
73085;BME280;62974;49.460;10.892;2023-09-07T08:01:15;98258.97;;;17.90;92.64
73085;BME280;62974;49.460;10.892;2023-09-07T08:03:43;98262.38;;;17.85;93.38
73085;BME280;62974;49.460;10.892;2023-09-07T08:06:11;98262.25;;;17.92;96.13
73085;BME280;62974;49.460;10.892;2023-09-07T08:08:39;98265.44;;;18.35;94.92
73085;BME280;62974;49.460;10.892;2023-09-07T08:11:08;98256.09;;;18.54;94.79
73085;BME280;62974;49.460;10.892;2023-09-07T08:13:35;98263.19;;;18.32;93.12
73085;BME280;62974;49.460;10.892;2023-09-07T08:16:04;98269.44;;;18.33;95.44
73085;BME280;62974;49.460;10.892;2023-09-07T08:18:33;98262.81;;;18.40;91.79
73085;BME280;62974;49.460;10.892;2023-09-07T08:21:02;98258.47;;;18.16;92.30
73085;BME280;62974;49.460;10.892;2023-09-07T08:23:30;98262.50;;;18.88;92.31
73085;BME280;62974;49.460;10.892;2023-09-07T08:25:57;98265.22;;;19.16;86.59
73085;BME280;62974;49.460;10.892;2023-09-07T08:28:28;98264.72;;;18.91;84.92
73085;BME280;62974;49.460;10.892;2023-09-07T08:30:56;98266.63;;;18.91;83.36
73085;BME280;62974;49.460;10.892;2023-09-07T08:33:30;98269.56;;;18.49;88.10
73085;BME280;62974;49.460;10.892;2023-09-07T08:36:01;98274.84;;;19.07;89.56
73085;BME280;62974;49.460;10.892;2023-09-07T08:38:31;98263.84;;;18.74;85.54
73085;BME280;62974;49.460;10.892;2023-09-07T08:41:01;98261.03;;;19.71;77.55
73085;BME280;62974;49.460;10.892;2023-09-07T08:43:37;98264.66;;;20.09;75.76
73085;BME280;62974;49.460;10.892;2023-09-07T08:46:13;98267.06;;;20.06;77.91
73085;BME280;62974;49.460;10.892;2023-09-07T08:48:42;98264.47;;;19.83;75.86
73085;BME280;62974;49.460;10.892;2023-09-07T08:51:12;98258.50;;;20.19;73.16
73085;BME280;62974;49.460;10.892;2023-09-07T08:53:40;98262.47;;;20.28;74.18
73085;BME280;62974;49.460;10.892;2023-09-07T08:56:12;98259.19;;;20.26;74.88
73085;BME280;62974;49.460;10.892;2023-09-07T08:58:42;98252.69;;;20.49;73.12
73085;BME280;62974;49.460;10.892;2023-09-07T09:01:11;98250.06;;;20.21;72.90
73085;BME280;62974;49.460;10.892;2023-09-07T09:03:39;98250.19;;;20.47;73.30
73085;BME280;62974;49.460;10.892;2023-09-07T09:06:08;98260.44;;;20.02;74.29
73085;BME280;62974;49.460;10.892;2023-09-07T09:08:42;98249.44;;;20.52;74.02
73085;BME280;62974;49.460;10.892;2023-09-07T09:11:10;98251.19;;;20.58;79.32
73085;BME280;62974;49.460;10.892;2023-09-07T09:13:40;98243.88;;;20.63;70.84
73085;BME280;62974;49.460;10.892;2023-09-07T09:16:09;98250.31;;;21.01;72.83
73085;BME280;62974;49.460;10.892;2023-09-07T09:18:37;98243.41;;;20.93;69.14
73085;BME280;62974;49.460;10.892;2023-09-07T09:21:06;98248.13;;;20.76;68.01
73085;BME280;62974;49.460;10.892;2023-09-07T09:23:34;98235.34;;;21.30;68.12
73085;BME280;62974;49.460;10.892;2023-09-07T09:26:03;98236.97;;;21.04;67.71
73085;BME280;62974;49.460;10.892;2023-09-07T09:28:31;98218.00;;;21.46;63.05
73085;BME280;62974;49.460;10.892;2023-09-07T09:31:01;98250.34;;;20.79;72.43
73085;BME280;62974;49.460;10.892;2023-09-07T09:33:31;98238.84;;;20.55;71.40
73085;BME280;62974;49.460;10.892;2023-09-07T09:35:59;98234.13;;;20.94;68.66
73085;BME280;62974;49.460;10.892;2023-09-07T09:38:28;98227.94;;;21.26;67.73
73085;BME280;62974;49.460;10.892;2023-09-07T09:40:59;98215.00;;;21.80;63.56
73085;BME280;62974;49.460;10.892;2023-09-07T09:43:26;98242.59;;;21.41;69.31
73085;BME280;62974;49.460;10.892;2023-09-07T09:45:54;98221.00;;;22.09;64.42
73085;BME280;62974;49.460;10.892;2023-09-07T09:48:23;98215.13;;;21.95;63.82
73085;BME280;62974;49.460;10.892;2023-09-07T09:50:52;98228.56;;;21.96;63.10
73085;BME280;62974;49.460;10.892;2023-09-07T09:53:19;98229.44;;;22.54;65.25
73085;BME280;62974;49.460;10.892;2023-09-07T09:55:50;98223.91;;;21.97;66.49
73085;BME280;62974;49.460;10.892;2023-09-07T09:58:18;98225.53;;;21.93;65.36
73085;BME280;62974;49.460;10.892;2023-09-07T10:00:48;98226.84;;;21.53;66.77
73085;BME280;62974;49.460;10.892;2023-09-07T10:03:20;98231.00;;;21.93;69.06
73085;BME280;62974;49.460;10.892;2023-09-07T10:05:54;98221.13;;;22.34;63.69
73085;BME280;62974;49.460;10.892;2023-09-07T10:08:22;98208.94;;;22.67;63.04
73085;BME280;62974;49.460;10.892;2023-09-07T10:10:53;98212.03;;;22.75;64.90
73085;BME280;62974;49.460;10.892;2023-09-07T10:13:29;98216.97;;;21.84;67.52
73085;BME280;62974;49.460;10.892;2023-09-07T10:16:00;98210.88;;;22.61;64.76
73085;BME280;62974;49.460;10.892;2023-09-07T10:18:34;98202.94;;;22.65;64.13
73085;BME280;62974;49.460;10.892;2023-09-07T10:21:04;98193.72;;;22.91;60.49
73085;BME280;62974;49.460;10.892;2023-09-07T10:23:36;98193.53;;;23.28;59.90
73085;BME280;62974;49.460;10.892;2023-09-07T10:26:05;98194.56;;;22.91;60.79
73085;BME280;62974;49.460;10.892;2023-09-07T10:28:33;98187.22;;;23.12;57.99
73085;BME280;62974;49.460;10.892;2023-09-07T10:31:02;98185.84;;;23.20;57.25
73085;BME280;62974;49.460;10.892;2023-09-07T10:33:34;98188.97;;;22.61;59.65
73085;BME280;62974;49.460;10.892;2023-09-07T10:36:05;98195.25;;;22.67;60.50
73085;BME280;62974;49.460;10.892;2023-09-07T10:38:33;98191.81;;;23.02;58.54
73085;BME280;62974;49.460;10.892;2023-09-07T10:41:02;98200.06;;;23.07;62.22
73085;BME280;62974;49.460;10.892;2023-09-07T10:43:32;98187.00;;;23.59;57.18
73085;BME280;62974;49.460;10.892;2023-09-07T10:46:01;98179.53;;;23.90;57.69
73085;BME280;62974;49.460;10.892;2023-09-07T10:48:29;98203.03;;;22.90;64.40
73085;BME280;62974;49.460;10.892;2023-09-07T10:50:57;98175.72;;;23.81;56.67
73085;BME280;62974;49.460;10.892;2023-09-07T10:53:27;98189.94;;;23.12;61.40
73085;BME280;62974;49.460;10.892;2023-09-07T10:55:57;98169.44;;;23.80;56.02
73085;BME280;62974;49.460;10.892;2023-09-07T10:58:27;98178.47;;;23.40;60.01
73085;BME280;62974;49.460;10.892;2023-09-07T11:00:57;98183.09;;;23.20;61.95
73085;BME280;62974;49.460;10.892;2023-09-07T11:03:26;98175.44;;;23.82;59.91
73085;BME280;62974;49.460;10.892;2023-09-07T11:05:56;98169.13;;;23.87;58.74
73085;BME280;62974;49.460;10.892;2023-09-07T11:08:28;98174.09;;;23.55;59.44
73085;BME280;62974;49.460;10.892;2023-09-07T11:10:56;98162.56;;;23.78;54.14
73085;BME280;62974;49.460;10.892;2023-09-07T11:13:24;98150.75;;;23.88;53.04
73085;BME280;62974;49.460;10.892;2023-09-07T11:15:54;98163.94;;;23.65;55.60
73085;BME280;62974;49.460;10.892;2023-09-07T11:18:22;98155.91;;;24.09;54.93
73085;BME280;62974;49.460;10.892;2023-09-07T11:20:51;98159.25;;;23.91;52.61
73085;BME280;62974;49.460;10.892;2023-09-07T11:23:20;98151.75;;;24.32;51.24
73085;BME280;62974;49.460;10.892;2023-09-07T11:25:50;98148.44;;;24.35;49.92
73085;BME280;62974;49.460;10.892;2023-09-07T11:28:19;98159.47;;;24.10;53.31
73085;BME280;62974;49.460;10.892;2023-09-07T11:30:49;98143.38;;;24.57;48.45
73085;BME280;62974;49.460;10.892;2023-09-07T11:33:17;98154.19;;;24.44;50.42
73085;BME280;62974;49.460;10.892;2023-09-07T11:35:45;98158.09;;;24.12;51.63
73085;BME280;62974;49.460;10.892;2023-09-07T11:38:14;98141.22;;;24.49;47.41
73085;BME280;62974;49.460;10.892;2023-09-07T11:40:43;98145.91;;;24.49;48.81
73085;BME280;62974;49.460;10.892;2023-09-07T11:43:12;98152.47;;;24.53;49.19
73085;BME280;62974;49.460;10.892;2023-09-07T11:45:41;98149.78;;;24.43;48.17
73085;BME280;62974;49.460;10.892;2023-09-07T11:48:10;98137.88;;;24.62;47.40
73085;BME280;62974;49.460;10.892;2023-09-07T11:50:39;98142.72;;;24.80;45.65
73085;BME280;62974;49.460;10.892;2023-09-07T11:53:07;98139.78;;;24.67;47.04
73085;BME280;62974;49.460;10.892;2023-09-07T11:55:35;98142.38;;;24.97;46.15
73085;BME280;62974;49.460;10.892;2023-09-07T11:58:04;98144.31;;;24.38;47.64
73085;BME280;62974;49.460;10.892;2023-09-07T12:00:33;98127.63;;;25.22;45.35
73085;BME280;62974;49.460;10.892;2023-09-07T12:03:00;98150.19;;;24.70;47.63
73085;BME280;62974;49.460;10.892;2023-09-07T12:05:28;98156.44;;;24.91;49.12
73085;BME280;62974;49.460;10.892;2023-09-07T12:07:56;98156.69;;;24.35;49.73
73085;BME280;62974;49.460;10.892;2023-09-07T12:10:24;98144.28;;;24.97;48.43
73085;BME280;62974;49.460;10.892;2023-09-07T12:12:51;98141.28;;;24.98;46.86
73085;BME280;62974;49.460;10.892;2023-09-07T12:15:19;98145.78;;;24.74;50.07
73085;BME280;62974;49.460;10.892;2023-09-07T12:17:48;98141.38;;;24.78;49.65
73085;BME280;62974;49.460;10.892;2023-09-07T12:20:21;98131.06;;;24.50;49.48
73085;BME280;62974;49.460;10.892;2023-09-07T12:22:48;98135.53;;;24.95;49.26
73085;BME280;62974;49.460;10.892;2023-09-07T12:25:16;98136.50;;;25.14;47.38
73085;BME280;62974;49.460;10.892;2023-09-07T12:27:49;98125.38;;;25.29;46.08
73085;BME280;62974;49.460;10.892;2023-09-07T12:30:21;98130.88;;;24.90;48.70
73085;BME280;62974;49.460;10.892;2023-09-07T12:32:52;98113.59;;;25.57;44.23
73085;BME280;62974;49.460;10.892;2023-09-07T12:35:20;98124.72;;;25.42;48.20
73085;BME280;62974;49.460;10.892;2023-09-07T12:37:47;98108.13;;;25.81;44.58
73085;BME280;62974;49.460;10.892;2023-09-07T12:40:15;98125.56;;;25.38;47.61
73085;BME280;62974;49.460;10.892;2023-09-07T12:42:43;98128.59;;;25.36;49.28
73085;BME280;62974;49.460;10.892;2023-09-07T12:45:12;98126.03;;;25.16;52.15
73085;BME280;62974;49.460;10.892;2023-09-07T12:47:41;98115.28;;;25.19;48.35
73085;BME280;62974;49.460;10.892;2023-09-07T12:50:10;98114.94;;;25.26;47.80
73085;BME280;62974;49.460;10.892;2023-09-07T12:52:38;98119.50;;;25.41;48.46
73085;BME280;62974;49.460;10.892;2023-09-07T12:55:07;98124.31;;;24.86;51.74
73085;BME280;62974;49.460;10.892;2023-09-07T12:57:35;98125.75;;;25.12;51.12